Companion Ship — WDF3026 — position and weather

sailwx.info

Track history (hours):
 
Tides and Currents Weather Stations Pressure Air Temp Water Temp Dewpoint Dewpoint Depression Visibility Wind Speed Wind Dir Waves Ship Positions

Companion Ship

Owner: brunkow, robert w, friday harbor, WA. More information available from US FCC via Universal Licensing System and Coast Guard Vessel Documentation Center.

Last reported at 2017-Aug-20 14:17 UTC. Time now 2017-Aug-21 17:31 UTC.
Position N 48°37' W 123°09'.

Length 20 m; draft 2 m.

Type: Pleasure craft. MMSI: 367434940.

Date/timePositionNaut miles runAvg speedWind from/ knotsBaromVisibWave heightAir tempDewpointWater temp
2017-Aug-20 14:17N 48°37' W 123°09'0 0.0
2017-Aug-20 13:46N 48°37' W 123°09'0 0.0
2017-Aug-20 13:25N 48°37' W 123°09'0 0.0
2017-Aug-20 13:00N 48°37' W 123°09'0 0.0
2017-Aug-20 12:30N 48°37' W 123°09'0 0.0
2017-Aug-20 11:59N 48°37' W 123°09'0 0.0
2017-Aug-20 10:59N 48°37' W 123°09'0 0.0
2017-Aug-20 07:10N 48°37' W 123°09'0 0.0
2017-Aug-20 06:51N 48°37' W 123°09'0 0.0
2017-Aug-20 05:52N 48°37' W 123°09'0 0.0
2017-Aug-20 04:52N 48°37' W 123°09'0 0.0
2017-Aug-20 04:19N 48°37' W 123°09'0 0.0
2017-Aug-20 03:55N 48°37' W 123°09'0 0.0
2017-Aug-20 03:30N 48°37' W 123°09'0 0.0
2017-Aug-19 18:34N 48°37' W 123°09'0 0.0
2017-Aug-19 01:18N 48°37' W 123°09'1 2.6
2017-Aug-19 00:58N 48°37' W 123°10'1111.1
2017-Aug-18 23:57N 48°46' W 123°20'510.2
2017-Aug-18 23:26N 48°51' W 123°25'510.2
2017-Aug-18 22:59N 48°54' W 123°29'6 9.9
2017-Aug-18 22:21N 48°59' W 123°35'510.3
2017-Aug-18 21:53N 49°02' W 123°40'410.1
2017-Aug-18 21:29N 49°05' W 123°45'5 9.4
2017-Aug-18 21:00N 49°08' W 123°50'5 9.2
2017-Aug-18 20:30N 49°12' W 123°54'5 9.7
2017-Aug-18 20:00N 49°17' W 123°56'4 9.0
2017-Aug-18 19:30N 49°21' W 123°58'4 9.0
2017-Aug-18 19:00N 49°25' W 124°00'4 8.6
2017-Aug-18 18:31N 49°29' W 124°04'5 9.7
2017-Aug-18 18:00N 49°33' W 124°08'5 9.8
2017-Aug-18 17:31N 49°37' W 124°13'510.0
2017-Aug-18 17:00N 49°40' W 124°18'510.3
2017-Aug-18 16:30N 49°44' W 124°24'5 9.8
2017-Aug-18 16:00N 49°47' W 124°30'510.1
2017-Aug-18 15:30N 49°51' W 124°35'510.2
2017-Aug-18 15:00N 49°54' W 124°40'510.4
2017-Aug-18 14:30N 49°58' W 124°46'8 8.3
2017-Aug-18 13:30N 50°06' W 124°47'5 9.1
2017-Aug-18 13:00N 50°09' W 124°41'0 0.2
2017-Aug-18 12:30N 50°09' W 124°41'0 0.0
2017-Aug-18 12:00N 50°09' W 124°41'0 0.0
2017-Aug-18 11:30N 50°09' W 124°41'0 0.0
2017-Aug-18 11:00N 50°09' W 124°41'0 0.0
2017-Aug-18 10:30N 50°09' W 124°41'0 0.0
2017-Aug-18 10:00N 50°09' W 124°41'0 0.0
2017-Aug-18 09:30N 50°09' W 124°41'0 0.0
2017-Aug-18 09:00N 50°09' W 124°41'0 0.0
2017-Aug-18 08:30N 50°09' W 124°41'0 0.0
2017-Aug-18 08:00N 50°09' W 124°41'0 0.0
2017-Aug-18 07:30N 50°09' W 124°41'0 0.0
2017-Aug-18 07:00N 50°09' W 124°41'0 0.0
2017-Aug-18 06:30N 50°09' W 124°41'0 0.0
2017-Aug-18 06:00N 50°09' W 124°41'0 0.0
2017-Aug-18 05:30N 50°09' W 124°41'0 0.0
2017-Aug-18 05:00N 50°09' W 124°41'0 0.0
2017-Aug-18 04:30N 50°09' W 124°41'0 0.0
2017-Aug-18 04:01N 50°09' W 124°41'0 0.0
2017-Aug-18 03:30N 50°09' W 124°41'0 0.0
2017-Aug-18 03:01N 50°09' W 124°41'0 0.0
2017-Aug-18 02:30N 50°09' W 124°41'0 0.0
2017-Aug-18 02:01N 50°09' W 124°41'0 0.0
2017-Aug-18 01:30N 50°09' W 124°41'0 0.0
2017-Aug-18 01:00N 50°09' W 124°41'0 0.0
2017-Aug-18 00:30N 50°09' W 124°41'0 0.0
2017-Aug-18 00:00N 50°09' W 124°41'0 0.0
2017-Aug-17 23:30N 50°09' W 124°41'0 0.0
2017-Aug-17 23:00N 50°09' W 124°41'0 0.0
2017-Aug-17 22:30N 50°09' W 124°41'0 0.0
2017-Aug-17 22:00N 50°09' W 124°41'0 0.0
2017-Aug-17 21:30N 50°09' W 124°41'0 0.0
2017-Aug-17 21:00N 50°09' W 124°41'0 0.0
2017-Aug-17 20:31N 50°09' W 124°41'0 0.0
2017-Aug-17 20:00N 50°09' W 124°41'0 0.0
2017-Aug-17 19:31N 50°09' W 124°41'0 0.0
2017-Aug-17 19:00N 50°09' W 124°41'0 0.0
2017-Aug-17 18:29N 50°09' W 124°41'0 0.0
2017-Aug-17 18:00N 50°09' W 124°41'0 0.0
2017-Aug-17 17:31N 50°09' W 124°41'0 0.0
2017-Aug-17 17:00N 50°09' W 124°41'3 6.0
2017-Aug-17 16:31N 50°08' W 124°45'4 7.9
2017-Aug-17 16:00N 50°07' W 124°52'510.1
2017-Aug-17 15:30N 50°11' W 124°56'510.1
2017-Aug-17 15:00N 50°15' W 125°01'5 9.9
2017-Aug-17 14:30N 50°19' W 125°06'5 8.1
2017-Aug-17 13:54N 50°17' W 125°13'2 3.6
2017-Aug-17 13:29N 50°16' W 125°14'0 0.1
2017-Aug-17 12:57N 50°16' W 125°14'0 0.0
2017-Aug-17 12:30N 50°16' W 125°14'0 0.0
2017-Aug-17 12:01N 50°16' W 125°14'0 0.0
2017-Aug-17 11:30N 50°16' W 125°14'0 0.0
2017-Aug-17 11:00N 50°16' W 125°14'0 0.1
2017-Aug-17 10:22N 50°16' W 125°14'0 0.0
2017-Aug-17 10:00N 50°16' W 125°14'0 0.1
2017-Aug-17 09:29N 50°16' W 125°14'0 0.0
2017-Aug-17 08:46N 50°16' W 125°14'0 0.0
2017-Aug-17 08:29N 50°16' W 125°14'0 0.1
2017-Aug-17 08:00N 50°16' W 125°14'0 0.1
2017-Aug-17 07:30N 50°16' W 125°14'0 0.0
2017-Aug-17 06:56N 50°16' W 125°14'0 0.1
2017-Aug-17 06:27N 50°16' W 125°14'0 0.0
2017-Aug-17 06:00N 50°16' W 125°14'0 0.1
2017-Aug-17 05:31N 50°16' W 125°14'0 0.0
2017-Aug-17 04:59N 50°16' W 125°14'0 0.0
2017-Aug-17 04:26N 50°16' W 125°14'0 0.0
2017-Aug-17 03:57N 50°16' W 125°14'0 0.0
2017-Aug-17 03:30N 50°16' W 125°14'0 0.0
2017-Aug-17 03:00N 50°16' W 125°14'0 0.0
2017-Aug-17 02:29N 50°16' W 125°14'0 0.0
2017-Aug-17 01:59N 50°16' W 125°14'0 0.1
2017-Aug-17 01:28N 50°16' W 125°14'0 0.1
2017-Aug-17 00:56N 50°16' W 125°14'0 0.0
2017-Aug-17 00:29N 50°16' W 125°14'0 0.1
2017-Aug-16 23:59N 50°16' W 125°14'0 0.0
2017-Aug-16 23:30N 50°16' W 125°14'0 0.0
2017-Aug-16 22:58N 50°16' W 125°14'0 0.0
2017-Aug-16 22:30N 50°16' W 125°14'0 0.0
2017-Aug-16 21:55N 50°16' W 125°14'0 0.0
2017-Aug-16 21:29N 50°16' W 125°14'0 0.0
2017-Aug-16 20:57N 50°16' W 125°14'0 0.5
2017-Aug-16 20:28N 50°16' W 125°14'3 5.7
2017-Aug-16 19:55N 50°19' W 125°16'66 2.4
2017-Aug-15 16:06N 50°53' W 126°45'10 0.5
2017-Aug-14 19:58N 50°49' W 126°60'11 8.9
2017-Aug-14 18:44N 50°52' W 127°17'210.7
2017-Aug-14 18:30N 50°53' W 127°20'5 9.8
2017-Aug-14 18:00N 50°56' W 127°27'510.1
2017-Aug-14 17:29N 50°59' W 127°34'510.1
2017-Aug-14 16:57N 51°03' W 127°39'510.1
2017-Aug-14 16:27N 51°06' W 127°45'2310.4
2017-Aug-14 14:12N 51°29' W 127°52'310.9
2017-Aug-14 13:55N 51°32' W 127°53'510.8
2017-Aug-14 13:30N 51°37' W 127°55'5 9.9
2017-Aug-14 13:00N 51°39' W 128°02'4 7.1
2017-Aug-14 12:30N 51°39' W 128°07'0 0.0
2017-Aug-14 12:00N 51°39' W 128°07'0 0.0
2017-Aug-14 11:30N 51°39' W 128°07'0 0.0
2017-Aug-14 11:00N 51°39' W 128°07'0 0.0
2017-Aug-14 10:30N 51°39' W 128°07'0 0.0
2017-Aug-14 10:00N 51°39' W 128°07'0 0.0
2017-Aug-14 09:30N 51°39' W 128°07'0 0.0
2017-Aug-14 09:00N 51°39' W 128°07'0 0.0
2017-Aug-14 08:30N 51°39' W 128°07'0 0.0
2017-Aug-14 08:00N 51°39' W 128°07'0 0.0
2017-Aug-14 07:30N 51°39' W 128°07'0 0.0
2017-Aug-14 07:00N 51°39' W 128°07'0 0.0
2017-Aug-14 06:30N 51°39' W 128°07'0 0.0
2017-Aug-14 06:00N 51°39' W 128°07'0 0.0
2017-Aug-14 05:30N 51°39' W 128°07'0 0.0
2017-Aug-14 05:00N 51°39' W 128°07'0 0.0
2017-Aug-14 04:30N 51°39' W 128°07'0 0.0
2017-Aug-14 04:00N 51°39' W 128°07'0 0.0
2017-Aug-14 03:30N 51°39' W 128°07'0 0.0
2017-Aug-14 03:00N 51°39' W 128°07'0 0.0
2017-Aug-14 02:30N 51°39' W 128°07'0 0.0
2017-Aug-14 02:00N 51°39' W 128°07'0 0.0
2017-Aug-14 01:30N 51°39' W 128°07'0 0.0
2017-Aug-14 01:00N 51°39' W 128°07'0 0.0
2017-Aug-14 00:31N 51°39' W 128°07'0 0.0
2017-Aug-14 00:00N 51°39' W 128°07'0 0.0
2017-Aug-13 23:30N 51°39' W 128°07'0 0.0
2017-Aug-13 23:00N 51°39' W 128°07'0 0.0
2017-Aug-13 22:30N 51°39' W 128°07'0 0.0
2017-Aug-13 22:00N 51°39' W 128°07'0 0.0
2017-Aug-13 21:30N 51°39' W 128°07'0 0.0
2017-Aug-13 21:01N 51°39' W 128°07'2 4.9
2017-Aug-13 20:30N 51°41' W 128°05'4 8.5
2017-Aug-13 20:00N 51°45' W 128°01'5 9.5
2017-Aug-13 19:30N 51°49' W 127°58'6 9.6
2017-Aug-13 18:51N 51°55' W 127°57'4 9.0
2017-Aug-13 18:27N 51°59' W 127°56'  
2017-Aug-11 00:50N 48°41' W 123°10'0 0.0
2017-Aug-10 17:57N 48°41' W 123°10'0 0.0
2017-Aug-10 15:12N 48°41' W 123°10'  
Track history (hours):
 
Tides and Currents Weather Stations Pressure Air Temp Water Temp Dewpoint Dewpoint Depression Visibility Wind Speed Wind Dir Waves Ship Positions

Companion Ship

Owner: brunkow, robert w, friday harbor, WA. More information available from US FCC via Universal Licensing System and Coast Guard Vessel Documentation Center.

Last reported at 2017-Aug-20 14:17 UTC. Time now 2017-Aug-21 17:31 UTC.
Position N 48°37' W 123°09'.

Length 20 m; draft 2 m.

Type: Pleasure craft. MMSI: 367434940.

Date/timePositionNaut miles runAvg speedWind from/ knotsBaromVisibWave heightAir tempDewpointWater temp
2017-Aug-20 14:17N 48°37' W 123°09'0 0.0
2017-Aug-20 13:46N 48°37' W 123°09'0 0.0
2017-Aug-20 13:25N 48°37' W 123°09'0 0.0
2017-Aug-20 13:00N 48°37' W 123°09'0 0.0
2017-Aug-20 12:30N 48°37' W 123°09'0 0.0
2017-Aug-20 11:59N 48°37' W 123°09'0 0.0
2017-Aug-20 10:59N 48°37' W 123°09'0 0.0
2017-Aug-20 07:10N 48°37' W 123°09'0 0.0
2017-Aug-20 06:51N 48°37' W 123°09'0 0.0
2017-Aug-20 05:52N 48°37' W 123°09'0 0.0
2017-Aug-20 04:52N 48°37' W 123°09'0 0.0
2017-Aug-20 04:19N 48°37' W 123°09'0 0.0
2017-Aug-20 03:55N 48°37' W 123°09'0 0.0
2017-Aug-20 03:30N 48°37' W 123°09'0 0.0
2017-Aug-19 18:34N 48°37' W 123°09'0 0.0
2017-Aug-19 01:18N 48°37' W 123°09'1 2.6
2017-Aug-19 00:58N 48°37' W 123°10'1111.1
2017-Aug-18 23:57N 48°46' W 123°20'510.2
2017-Aug-18 23:26N 48°51' W 123°25'510.2
2017-Aug-18 22:59N 48°54' W 123°29'6 9.9
2017-Aug-18 22:21N 48°59' W 123°35'510.3
2017-Aug-18 21:53N 49°02' W 123°40'410.1
2017-Aug-18 21:29N 49°05' W 123°45'5 9.4
2017-Aug-18 21:00N 49°08' W 123°50'5 9.2
2017-Aug-18 20:30N 49°12' W 123°54'5 9.7
2017-Aug-18 20:00N 49°17' W 123°56'4 9.0
2017-Aug-18 19:30N 49°21' W 123°58'4 9.0
2017-Aug-18 19:00N 49°25' W 124°00'4 8.6
2017-Aug-18 18:31N 49°29' W 124°04'5 9.7
2017-Aug-18 18:00N 49°33' W 124°08'5 9.8
2017-Aug-18 17:31N 49°37' W 124°13'510.0
2017-Aug-18 17:00N 49°40' W 124°18'510.3
2017-Aug-18 16:30N 49°44' W 124°24'5 9.8
2017-Aug-18 16:00N 49°47' W 124°30'510.1
2017-Aug-18 15:30N 49°51' W 124°35'510.2
2017-Aug-18 15:00N 49°54' W 124°40'510.4
2017-Aug-18 14:30N 49°58' W 124°46'8 8.3
2017-Aug-18 13:30N 50°06' W 124°47'5 9.1
2017-Aug-18 13:00N 50°09' W 124°41'0 0.2
2017-Aug-18 12:30N 50°09' W 124°41'0 0.0
2017-Aug-18 12:00N 50°09' W 124°41'0 0.0
2017-Aug-18 11:30N 50°09' W 124°41'0 0.0
2017-Aug-18 11:00N 50°09' W 124°41'0 0.0
2017-Aug-18 10:30N 50°09' W 124°41'0 0.0
2017-Aug-18 10:00N 50°09' W 124°41'0 0.0
2017-Aug-18 09:30N 50°09' W 124°41'0 0.0
2017-Aug-18 09:00N 50°09' W 124°41'0 0.0
2017-Aug-18 08:30N 50°09' W 124°41'0 0.0
2017-Aug-18 08:00N 50°09' W 124°41'0 0.0
2017-Aug-18 07:30N 50°09' W 124°41'0 0.0
2017-Aug-18 07:00N 50°09' W 124°41'0 0.0
2017-Aug-18 06:30N 50°09' W 124°41'0 0.0
2017-Aug-18 06:00N 50°09' W 124°41'0 0.0
2017-Aug-18 05:30N 50°09' W 124°41'0 0.0
2017-Aug-18 05:00N 50°09' W 124°41'0 0.0
2017-Aug-18 04:30N 50°09' W 124°41'0 0.0
2017-Aug-18 04:01N 50°09' W 124°41'0 0.0
2017-Aug-18 03:30N 50°09' W 124°41'0 0.0
2017-Aug-18 03:01N 50°09' W 124°41'0 0.0
2017-Aug-18 02:30N 50°09' W 124°41'0 0.0
2017-Aug-18 02:01N 50°09' W 124°41'0 0.0
2017-Aug-18 01:30N 50°09' W 124°41'0 0.0
2017-Aug-18 01:00N 50°09' W 124°41'0 0.0
2017-Aug-18 00:30N 50°09' W 124°41'0 0.0
2017-Aug-18 00:00N 50°09' W 124°41'0 0.0
2017-Aug-17 23:30N 50°09' W 124°41'0 0.0
2017-Aug-17 23:00N 50°09' W 124°41'0 0.0
2017-Aug-17 22:30N 50°09' W 124°41'0 0.0
2017-Aug-17 22:00N 50°09' W 124°41'0 0.0
2017-Aug-17 21:30N 50°09' W 124°41'0 0.0
2017-Aug-17 21:00N 50°09' W 124°41'0 0.0
2017-Aug-17 20:31N 50°09' W 124°41'0 0.0
2017-Aug-17 20:00N 50°09' W 124°41'0 0.0
2017-Aug-17 19:31N 50°09' W 124°41'0 0.0
2017-Aug-17 19:00N 50°09' W 124°41'0 0.0
2017-Aug-17 18:29N 50°09' W 124°41'0 0.0
2017-Aug-17 18:00N 50°09' W 124°41'0 0.0
2017-Aug-17 17:31N 50°09' W 124°41'0 0.0
2017-Aug-17 17:00N 50°09' W 124°41'3 6.0
2017-Aug-17 16:31N 50°08' W 124°45'4 7.9
2017-Aug-17 16:00N 50°07' W 124°52'510.1
2017-Aug-17 15:30N 50°11' W 124°56'510.1
2017-Aug-17 15:00N 50°15' W 125°01'5 9.9
2017-Aug-17 14:30N 50°19' W 125°06'5 8.1
2017-Aug-17 13:54N 50°17' W 125°13'2 3.6
2017-Aug-17 13:29N 50°16' W 125°14'0 0.1
2017-Aug-17 12:57N 50°16' W 125°14'0 0.0
2017-Aug-17 12:30N 50°16' W 125°14'0 0.0
2017-Aug-17 12:01N 50°16' W 125°14'0 0.0
2017-Aug-17 11:30N 50°16' W 125°14'0 0.0
2017-Aug-17 11:00N 50°16' W 125°14'0 0.1
2017-Aug-17 10:22N 50°16' W 125°14'0 0.0
2017-Aug-17 10:00N 50°16' W 125°14'0 0.1
2017-Aug-17 09:29N 50°16' W 125°14'0 0.0
2017-Aug-17 08:46N 50°16' W 125°14'0 0.0
2017-Aug-17 08:29N 50°16' W 125°14'0 0.1
2017-Aug-17 08:00N 50°16' W 125°14'0 0.1
2017-Aug-17 07:30N 50°16' W 125°14'0 0.0
2017-Aug-17 06:56N 50°16' W 125°14'0 0.1
2017-Aug-17 06:27N 50°16' W 125°14'0 0.0
2017-Aug-17 06:00N 50°16' W 125°14'0 0.1
2017-Aug-17 05:31N 50°16' W 125°14'0 0.0
2017-Aug-17 04:59N 50°16' W 125°14'0 0.0
2017-Aug-17 04:26N 50°16' W 125°14'0 0.0
2017-Aug-17 03:57N 50°16' W 125°14'0 0.0
2017-Aug-17 03:30N 50°16' W 125°14'0 0.0
2017-Aug-17 03:00N 50°16' W 125°14'0 0.0
2017-Aug-17 02:29N 50°16' W 125°14'0 0.0
2017-Aug-17 01:59N 50°16' W 125°14'0 0.1
2017-Aug-17 01:28N 50°16' W 125°14'0 0.1
2017-Aug-17 00:56N 50°16' W 125°14'0 0.0
2017-Aug-17 00:29N 50°16' W 125°14'0 0.1
2017-Aug-16 23:59N 50°16' W 125°14'0 0.0
2017-Aug-16 23:30N 50°16' W 125°14'0 0.0
2017-Aug-16 22:58N 50°16' W 125°14'0 0.0
2017-Aug-16 22:30N 50°16' W 125°14'0 0.0
2017-Aug-16 21:55N 50°16' W 125°14'0 0.0
2017-Aug-16 21:29N 50°16' W 125°14'0 0.0
2017-Aug-16 20:57N 50°16' W 125°14'0 0.5
2017-Aug-16 20:28N 50°16' W 125°14'3 5.7
2017-Aug-16 19:55N 50°19' W 125°16'66 2.4
2017-Aug-15 16:06N 50°53' W 126°45'10 0.5
2017-Aug-14 19:58N 50°49' W 126°60'11 8.9
2017-Aug-14 18:44N 50°52' W 127°17'210.7
2017-Aug-14 18:30N 50°53' W 127°20'5 9.8
2017-Aug-14 18:00N 50°56' W 127°27'510.1
2017-Aug-14 17:29N 50°59' W 127°34'510.1
2017-Aug-14 16:57N 51°03' W 127°39'510.1
2017-Aug-14 16:27N 51°06' W 127°45'2310.4
2017-Aug-14 14:12N 51°29' W 127°52'310.9
2017-Aug-14 13:55N 51°32' W 127°53'510.8
2017-Aug-14 13:30N 51°37' W 127°55'5 9.9
2017-Aug-14 13:00N 51°39' W 128°02'4 7.1
2017-Aug-14 12:30N 51°39' W 128°07'0 0.0
2017-Aug-14 12:00N 51°39' W 128°07'0 0.0
2017-Aug-14 11:30N 51°39' W 128°07'0 0.0
2017-Aug-14 11:00N 51°39' W 128°07'0 0.0
2017-Aug-14 10:30N 51°39' W 128°07'0 0.0
2017-Aug-14 10:00N 51°39' W 128°07'0 0.0
2017-Aug-14 09:30N 51°39' W 128°07'0 0.0
2017-Aug-14 09:00N 51°39' W 128°07'0 0.0
2017-Aug-14 08:30N 51°39' W 128°07'0 0.0
2017-Aug-14 08:00N 51°39' W 128°07'0 0.0
2017-Aug-14 07:30N 51°39' W 128°07'0 0.0
2017-Aug-14 07:00N 51°39' W 128°07'0 0.0
2017-Aug-14 06:30N 51°39' W 128°07'0 0.0
2017-Aug-14 06:00N 51°39' W 128°07'0 0.0
2017-Aug-14 05:30N 51°39' W 128°07'0 0.0
2017-Aug-14 05:00N 51°39' W 128°07'0 0.0
2017-Aug-14 04:30N 51°39' W 128°07'0 0.0
2017-Aug-14 04:00N 51°39' W 128°07'0 0.0
2017-Aug-14 03:30N 51°39' W 128°07'0 0.0
2017-Aug-14 03:00N 51°39' W 128°07'0 0.0
2017-Aug-14 02:30N 51°39' W 128°07'0 0.0
2017-Aug-14 02:00N 51°39' W 128°07'0 0.0
2017-Aug-14 01:30N 51°39' W 128°07'0 0.0
2017-Aug-14 01:00N 51°39' W 128°07'0 0.0
2017-Aug-14 00:31N 51°39' W 128°07'0 0.0
2017-Aug-14 00:00N 51°39' W 128°07'0 0.0
2017-Aug-13 23:30N 51°39' W 128°07'0 0.0
2017-Aug-13 23:00N 51°39' W 128°07'0 0.0
2017-Aug-13 22:30N 51°39' W 128°07'0 0.0
2017-Aug-13 22:00N 51°39' W 128°07'0 0.0
2017-Aug-13 21:30N 51°39' W 128°07'0 0.0
2017-Aug-13 21:01N 51°39' W 128°07'2 4.9
2017-Aug-13 20:30N 51°41' W 128°05'4 8.5
2017-Aug-13 20:00N 51°45' W 128°01'5 9.5
2017-Aug-13 19:30N 51°49' W 127°58'6 9.6
2017-Aug-13 18:51N 51°55' W 127°57'4 9.0
2017-Aug-13 18:27N 51°59' W 127°56'  
2017-Aug-11 00:50N 48°41' W 123°10'0 0.0
2017-Aug-10 17:57N 48°41' W 123°10'0 0.0
2017-Aug-10 15:12N 48°41' W 123°10'  

Dump ship's entire track history